Time;durP1;ratioP1;P1;durP2;ratioP2;P2;SDS_P1;SDS_P2;PMS_P1;PMS_P2;Temp;Humidity;BMP_temperature;BMP_pressure;BME280_temperature;BME280_humidity;BME280_pressure;Samples;Min_cycle;Max_cycle;Signal;HPM_P1;HPM_P2
2023/09/14 00:01:00;;;;;;;0.90;0.85;;;15.90;99.90;;;;;;4980632;28;20145;-82
2023/09/14 00:03:25;;;;;;;8.65;1.25;;;16.00;99.90;;;;;;4962058;28;20042;-82
2023/09/14 00:05:51;;;;;;;2.45;1.20;;;15.90;99.90;;;;;;4978416;28;20030;-82
2023/09/14 00:08:19;;;;;;;2.72;1.15;;;15.90;99.90;;;;;;4979948;28;20030;-83
2023/09/14 00:10:46;;;;;;;1.83;0.98;;;15.90;99.90;;;;;;4976936;28;20463;-82
2023/09/14 00:13:12;;;;;;;3.92;1.15;;;15.90;99.90;;;;;;4981492;28;20027;-82
2023/09/14 00:15:40;;;;;;;4.45;0.90;;;15.90;99.90;;;;;;4984999;28;20041;-82
2023/09/14 00:18:05;;;;;;;2.38;1.05;;;15.80;99.90;;;;;;4983842;28;20026;-81
2023/09/14 00:20:31;;;;;;;3.42;1.00;;;15.90;99.90;;;;;;4983906;28;20026;-81
2023/09/14 00:22:57;;;;;;;1.42;0.88;;;15.90;99.90;;;;;;4981662;28;20034;-81
2023/09/14 00:25:24;;;;;;;2.05;1.02;;;15.90;99.90;;;;;;4983375;28;20352;-82
2023/09/14 00:27:53;;;;;;;1.45;1.00;;;15.80;99.90;;;;;;4964876;28;20114;-82
2023/09/14 00:30:23;;;;;;;2.45;1.02;;;15.80;99.90;;;;;;4983712;28;20033;-81
2023/09/14 00:32:51;;;;;;;13.60;1.40;;;15.70;99.90;;;;;;4982182;28;20079;-82
2023/09/14 00:35:20;;;;;;;3.33;1.20;;;15.80;99.90;;;;;;4982897;28;20153;-81
2023/09/14 00:37:47;;;;;;;5.90;1.23;;;15.80;99.90;;;;;;4983408;28;20062;-79
2023/09/14 00:40:13;;;;;;;1.58;0.88;;;15.80;99.90;;;;;;4982341;28;20462;-79
2023/09/14 00:42:45;;;;;;;3.97;1.10;;;15.80;99.90;;;;;;4983300;28;20774;-79
2023/09/14 00:45:13;;;;;;;10.75;1.50;;;15.80;99.90;;;;;;4981759;28;20085;-79
2023/09/14 00:47:42;;;;;;;1.23;0.68;;;15.60;99.90;;;;;;4981410;28;20105;-80
2023/09/14 00:50:08;;;;;;;1.75;1.23;;;15.60;99.90;;;;;;4982448;28;20010;-80
2023/09/14 00:52:39;;;;;;;1.40;1.02;;;15.60;99.90;;;;;;4965354;28;20073;-81
2023/09/14 00:55:06;;;;;;;3.35;0.93;;;15.60;99.90;;;;;;4980718;28;20022;-79
2023/09/14 00:57:32;;;;;;;9.45;2.03;;;15.50;99.90;;;;;;4982700;28;20014;-79
2023/09/14 00:59:59;;;;;;;4.15;1.17;;;15.40;99.90;;;;;;4964622;28;20363;-79
2023/09/14 01:02:28;;;;;;;1.13;0.98;;;15.40;99.90;;;;;;4965836;28;20031;-80
2023/09/14 01:04:55;;;;;;;2.28;1.10;;;15.40;99.90;;;;;;4982896;28;20106;-79
2023/09/14 01:07:22;;;;;;;4.30;1.10;;;15.40;99.90;;;;;;4967217;28;20026;-79
2023/09/14 01:09:48;;;;;;;6.57;1.30;;;15.40;99.90;;;;;;4984285;28;20034;-80
2023/09/14 01:12:14;;;;;;;3.70;1.13;;;15.40;99.90;;;;;;4963413;28;20022;-79
2023/09/14 01:14:58;;;;;;;3.40;1.23;;;15.40;99.90;;;;;;4983317;28;20088;-80
2023/09/14 01:17:36;;;;;;;3.63;0.85;;;15.40;99.90;;;;;;4981295;28;20019;-79
2023/09/14 01:20:30;;;;;;;3.20;1.33;;;15.40;99.90;;;;;;4982179;28;20026;-79
2023/09/14 01:23:28;;;;;;;1.20;0.95;;;15.50;99.90;;;;;;4982932;28;20042;-81
2023/09/14 01:25:55;;;;;;;5.50;1.35;;;15.30;99.90;;;;;;4981868;28;20054;-82
2023/09/14 01:28:21;;;;;;;4.95;0.95;;;15.30;99.90;;;;;;4983313;28;20046;-81
2023/09/14 01:30:46;;;;;;;2.13;1.48;;;15.30;99.90;;;;;;4966393;28;20568;-81
2023/09/14 01:33:14;;;;;;;2.20;1.27;;;15.30;99.90;;;;;;4982835;28;20058;-81
2023/09/14 01:35:53;;;;;;;5.47;1.10;;;15.40;99.90;;;;;;4981424;28;20270;-81
2023/09/14 01:38:19;;;;;;;1.13;1.00;;;15.40;99.90;;;;;;4961354;28;20445;-81
2023/09/14 01:40:47;;;;;;;1.35;1.20;;;15.40;99.90;;;;;;4964704;28;20034;-81
2023/09/14 01:43:14;;;;;;;1.98;1.30;;;15.40;99.90;;;;;;4981260;28;20589;-79
2023/09/14 01:45:39;;;;;;;5.15;1.20;;;15.40;99.90;;;;;;4982563;28;20022;-79
2023/09/14 01:48:13;;;;;;;5.65;1.38;;;15.40;99.90;;;;;;4981130;28;20049;-79
2023/09/14 01:50:38;;;;;;;2.78;1.40;;;15.50;99.90;;;;;;4964760;28;20022;-79
2023/09/14 01:53:04;;;;;;;4.35;1.45;;;15.60;99.90;;;;;;4963829;28;20057;-79
2023/09/14 01:55:30;;;;;;;7.22;1.27;;;15.60;99.90;;;;;;4983690;28;20058;-79
2023/09/14 01:57:55;;;;;;;2.88;1.17;;;15.60;99.90;;;;;;4981662;28;20476;-80
2023/09/14 02:00:21;;;;;;;5.15;1.30;;;15.70;99.90;;;;;;4982557;28;20113;-80
2023/09/14 02:02:46;;;;;;;2.72;1.40;;;15.70;99.90;;;;;;4965002;28;20493;-81
2023/09/14 02:05:12;;;;;;;1.30;0.95;;;15.70;99.90;;;;;;4961199;28;20030;-81
2023/09/14 02:07:38;;;;;;;1.23;1.13;;;15.70;99.90;;;;;;4965057;28;20482;-81
2023/09/14 02:10:04;;;;;;;3.90;0.93;;;15.70;99.90;;;;;;4981070;28;20025;-81
2023/09/14 02:12:29;;;;;;;1.30;0.95;;;15.60;99.90;;;;;;4981001;28;20165;-81
2023/09/14 02:14:55;;;;;;;0.98;0.82;;;15.60;99.90;;;;;;4982813;28;20508;-81
2023/09/14 02:17:21;;;;;;;9.13;1.45;;;15.70;99.90;;;;;;4980390;28;20027;-81
2023/09/14 02:19:46;;;;;;;4.43;1.02;;;15.70;99.90;;;;;;4963509;28;20601;-81
2023/09/14 02:22:12;;;;;;;2.83;1.13;;;15.70;99.90;;;;;;4980671;28;20034;-81
2023/09/14 02:24:38;;;;;;;5.00;1.40;;;15.70;99.90;;;;;;4978075;28;20132;-81
2023/09/14 02:27:03;;;;;;;3.03;1.70;;;15.60;99.90;;;;;;4982625;28;20087;-81
2023/09/14 02:29:30;;;;;;;3.17;1.85;;;15.60;99.90;;;;;;4992989;28;20080;-81
2023/09/14 02:31:56;;;;;;;2.47;1.38;;;15.70;99.90;;;;;;5002860;28;20112;-80
2023/09/14 02:34:24;;;;;;;3.35;1.40;;;15.70;99.90;;;;;;5001627;28;20074;-81
2023/09/14 02:36:50;;;;;;;1.95;1.13;;;15.60;99.90;;;;;;5002216;28;20034;-81
2023/09/14 02:39:15;;;;;;;4.05;1.55;;;15.50;99.90;;;;;;4987904;28;20629;-81
2023/09/14 02:41:41;;;;;;;2.20;1.17;;;15.60;99.90;;;;;;5006349;28;20030;-81
2023/09/14 02:44:09;;;;;;;1.13;0.90;;;15.60;99.90;;;;;;4984998;28;20526;-79
2023/09/14 02:46:34;;;;;;;3.58;1.60;;;15.60;99.90;;;;;;4981795;28;20482;-79
2023/09/14 02:49:00;;;;;;;1.77;1.08;;;15.50;99.90;;;;;;4978235;28;20022;-82
2023/09/14 02:51:25;;;;;;;3.33;1.20;;;15.60;99.90;;;;;;4979377;28;20438;-81
2023/09/14 02:53:53;;;;;;;5.18;1.30;;;15.70;99.90;;;;;;4965577;28;20105;-79
2023/09/14 02:56:19;;;;;;;2.97;1.65;;;15.70;99.90;;;;;;4954078;28;20030;-79
2023/09/14 02:58:44;;;;;;;2.03;1.02;;;15.70;99.90;;;;;;4981443;28;20367;-80
2023/09/14 03:01:10;;;;;;;5.53;1.08;;;15.70;99.90;;;;;;4981139;28;20018;-79
2023/09/14 03:03:38;;;;;;;1.40;1.13;;;15.60;99.90;;;;;;4963510;28;20470;-81
2023/09/14 03:06:04;;;;;;;2.55;1.15;;;15.70;99.90;;;;;;4980291;28;20054;-79
2023/09/14 03:08:30;;;;;;;5.03;1.40;;;15.60;99.90;;;;;;4980518;28;20356;-79
2023/09/14 03:10:56;;;;;;;9.98;1.55;;;15.70;99.90;;;;;;4978535;28;20022;-79
2023/09/14 03:13:22;;;;;;;1.33;1.17;;;15.60;99.90;;;;;;4979353;28;20385;-79
2023/09/14 03:15:53;;;;;;;5.32;1.20;;;15.60;99.90;;;;;;4979638;28;20277;-79
2023/09/14 03:18:19;;;;;;;4.57;1.25;;;15.60;99.90;;;;;;4953912;28;20062;-81
2023/09/14 03:20:51;;;;;;;2.25;1.15;;;15.60;99.90;;;;;;4962021;28;20426;-80
2023/09/14 03:23:17;;;;;;;2.53;1.20;;;15.60;99.90;;;;;;4980102;28;20065;-82
2023/09/14 03:25:43;;;;;;;1.20;0.73;;;15.50;99.90;;;;;;4981266;28;20495;-81
2023/09/14 03:28:09;;;;;;;1.17;0.90;;;15.40;99.90;;;;;;4953992;28;20181;-82
2023/09/14 03:30:38;;;;;;;3.75;1.20;;;15.40;99.90;;;;;;4964238;28;20124;-81
2023/09/14 03:33:04;;;;;;;5.05;0.98;;;15.40;99.90;;;;;;4978375;28;20031;-81
2023/09/14 03:35:29;;;;;;;3.50;1.20;;;15.40;99.90;;;;;;4980249;28;20084;-81
2023/09/14 03:37:55;;;;;;;1.27;0.88;;;15.40;99.90;;;;;;4979836;28;20031;-82
2023/09/14 03:40:21;;;;;;;3.85;1.13;;;15.40;99.90;;;;;;4961186;28;20409;-80
2023/09/14 03:42:49;;;;;;;4.95;1.13;;;15.30;99.90;;;;;;4980391;28;20422;-81
2023/09/14 03:45:15;;;;;;;9.70;1.20;;;15.30;99.90;;;;;;4978567;28;20529;-81
2023/09/14 03:47:41;;;;;;;2.30;1.17;;;15.40;99.90;;;;;;4963883;28;20027;-82
2023/09/14 03:50:10;;;;;;;4.22;0.95;;;15.40;99.90;;;;;;4980739;28;20030;-82
2023/09/14 03:52:36;;;;;;;2.15;0.82;;;15.40;99.90;;;;;;4961655;28;20045;-80
2023/09/14 03:55:02;;;;;;;3.72;0.80;;;15.40;99.90;;;;;;4977929;28;20029;-80
2023/09/14 03:57:29;;;;;;;0.85;0.70;;;15.40;99.90;;;;;;4969165;28;20176;-81
2023/09/14 03:59:55;;;;;;;1.88;1.20;;;15.40;99.90;;;;;;4961011;28;20100;-80
2023/09/14 04:02:21;;;;;;;7.20;1.35;;;15.30;99.90;;;;;;4978821;28;20458;-80
2023/09/14 04:04:46;;;;;;;7.95;1.42;;;15.20;99.90;;;;;;4978125;28;20538;-81
2023/09/14 04:07:12;;;;;;;5.50;1.27;;;15.20;99.90;;;;;;4978201;28;20109;-80
2023/09/14 04:09:38;;;;;;;4.20;1.08;;;15.20;99.90;;;;;;4980131;28;20487;-81
2023/09/14 04:12:05;;;;;;;7.70;0.90;;;15.30;99.90;;;;;;4955272;28;20023;-81
2023/09/14 04:14:30;;;;;;;3.30;0.80;;;15.20;99.90;;;;;;4961842;28;20027;-81
2023/09/14 04:17:00;;;;;;;1.42;0.90;;;15.30;99.90;;;;;;4972987;28;20030;-80
2023/09/14 04:19:27;;;;;;;2.85;1.15;;;15.20;99.90;;;;;;4978728;28;20026;-83
2023/09/14 04:21:53;;;;;;;2.03;1.08;;;15.20;99.90;;;;;;4961801;28;20042;-83
2023/09/14 04:24:19;;;;;;;2.08;1.02;;;15.20;99.90;;;;;;4980036;28;20607;-83
2023/09/14 04:26:45;;;;;;;1.13;1.00;;;15.20;99.90;;;;;;4960682;28;20117;-83
2023/09/14 04:29:11;;;;;;;11.10;1.02;;;15.20;99.90;;;;;;4960742;28;20031;-82
2023/09/14 04:31:37;;;;;;;8.68;1.13;;;15.10;99.90;;;;;;4982524;28;20103;-82
2023/09/14 04:34:05;;;;;;;2.58;0.95;;;15.20;99.90;;;;;;5095191;23;20050;-81
2023/09/14 04:36:31;;;;;;;3.05;1.05;;;15.10;99.90;;;;;;4978316;28;20092;-81
2023/09/14 04:38:57;;;;;;;1.10;0.80;;;15.10;99.90;;;;;;4976735;28;20038;-80
2023/09/14 04:41:22;;;;;;;3.35;0.95;;;15.10;99.90;;;;;;4983255;28;20057;-81
2023/09/14 04:43:49;;;;;;;2.03;1.08;;;15.10;99.90;;;;;;4961074;28;20129;-80
2023/09/14 04:46:14;;;;;;;1.50;0.80;;;15.10;99.90;;;;;;4977330;28;20022;-81
2023/09/14 04:48:41;;;;;;;0.90;0.70;;;15.10;99.90;;;;;;4977665;28;20545;-81
2023/09/14 04:51:07;;;;;;;5.20;1.42;;;15.10;99.90;;;;;;4964291;28;20447;-80
2023/09/14 04:53:36;;;;;;;2.70;0.85;;;15.20;99.90;;;;;;4978179;28;20121;-82
2023/09/14 04:56:01;;;;;;;1.08;0.77;;;15.10;99.90;;;;;;4979749;28;20490;-80
2023/09/14 04:58:27;;;;;;;2.10;1.10;;;15.10;99.90;;;;;;4976608;28;20041;-80
2023/09/14 05:00:52;;;;;;;4.30;1.30;;;15.10;99.90;;;;;;4976966;28;20023;-79
2023/09/14 05:03:19;;;;;;;6.25;1.02;;;15.10;99.90;;;;;;4978173;28;20533;-81
2023/09/14 05:05:52;;;;;;;3.60;1.08;;;15.10;99.90;;;;;;4960648;28;20030;-81
2023/09/14 05:08:18;;;;;;;3.13;0.85;;;15.00;99.90;;;;;;4959175;28;20026;-81
2023/09/14 05:10:44;;;;;;;1.35;0.88;;;14.90;99.90;;;;;;4960117;28;20018;-81
2023/09/14 05:13:09;;;;;;;2.47;1.30;;;14.90;99.90;;;;;;4960581;28;20018;-82
2023/09/14 05:15:35;;;;;;;6.43;1.58;;;14.90;99.90;;;;;;4960635;28;20475;-80
2023/09/14 05:18:00;;;;;;;1.23;1.13;;;14.90;99.90;;;;;;4961933;28;20018;-81
2023/09/14 05:20:26;;;;;;;1.52;1.08;;;14.90;99.90;;;;;;4978823;28;20030;-80
2023/09/14 05:22:52;;;;;;;0.80;0.80;;;15.00;99.90;;;;;;4978406;28;20038;-80
2023/09/14 05:25:27;;;;;;;1.15;1.05;;;15.00;99.90;;;;;;4977082;28;20026;-81
2023/09/14 05:27:53;;;;;;;9.77;1.40;;;15.00;99.90;;;;;;4977597;28;20117;-80
2023/09/14 05:30:21;;;;;;;7.03;1.05;;;15.00;99.90;;;;;;4960960;28;20162;-79
2023/09/14 05:32:47;;;;;;;5.45;1.20;;;15.10;99.90;;;;;;4977379;28;20027;-80
2023/09/14 05:35:13;;;;;;;8.00;1.10;;;15.00;99.90;;;;;;4978964;28;20039;-81
2023/09/14 05:37:39;;;;;;;2.88;0.80;;;15.10;99.90;;;;;;4961229;28;20030;-79
2023/09/14 05:40:12;;;;;;;7.22;1.05;;;15.00;99.90;;;;;;4978693;28;20026;-80
2023/09/14 05:42:37;;;;;;;;;;;15.10;99.90;;;;;;4979750;28;20502;-81
2023/09/14 05:45:05;;;;;;;5.57;0.95;;;15.10;99.90;;;;;;4960499;28;19925;-81
2023/09/14 05:47:31;;;;;;;2.03;1.17;;;15.10;99.90;;;;;;4961119;28;20053;-82
2023/09/14 05:49:59;;;;;;;5.55;1.35;;;15.10;99.90;;;;;;4979270;28;20108;-81
2023/09/14 05:52:24;;;;;;;2.70;1.33;;;15.10;99.90;;;;;;4974399;28;20141;-81
2023/09/14 05:54:50;;;;;;;3.67;1.20;;;15.20;99.90;;;;;;4962366;28;20030;-80
2023/09/14 05:57:16;;;;;;;2.88;1.30;;;15.20;99.90;;;;;;4979787;28;20030;-81
2023/09/14 05:59:42;;;;;;;3.17;1.02;;;15.20;99.90;;;;;;4981273;28;20113;-81
2023/09/14 06:02:08;;;;;;;6.95;1.20;;;15.30;99.90;;;;;;4978840;28;20022;-80
2023/09/14 06:04:34;;;;;;;2.38;1.05;;;15.20;99.90;;;;;;4962287;28;20031;-80
2023/09/14 06:07:02;;;;;;;2.50;1.15;;;15.30;99.90;;;;;;4979861;28;20125;-81
2023/09/14 06:09:29;;;;;;;5.85;1.42;;;15.30;99.90;;;;;;4979488;28;20030;-81
2023/09/14 06:11:55;;;;;;;10.13;1.25;;;15.30;99.90;;;;;;4978912;28;20130;-80
2023/09/14 06:14:23;;;;;;;4.40;1.48;;;15.20;99.90;;;;;;4962646;28;20054;-80
2023/09/14 06:16:48;;;;;;;7.55;1.30;;;15.30;99.90;;;;;;4977554;28;20170;-81
2023/09/14 06:19:14;;;;;;;1.33;1.02;;;15.30;99.90;;;;;;4961521;28;20534;-81
2023/09/14 06:21:40;;;;;;;4.25;1.00;;;15.30;99.90;;;;;;4978887;28;20029;-80
2023/09/14 06:24:06;;;;;;;5.53;1.38;;;15.30;99.90;;;;;;4976012;28;20081;-80
2023/09/14 06:26:32;;;;;;;12.10;1.30;;;15.30;99.90;;;;;;4980053;28;20072;-80
2023/09/14 06:28:57;;;;;;;2.45;0.90;;;15.40;99.90;;;;;;4983129;28;20043;-80
2023/09/14 06:31:23;;;;;;;12.45;1.23;;;15.40;99.90;;;;;;4966038;28;20503;-80
2023/09/14 06:33:49;;;;;;;3.88;1.58;;;15.40;99.90;;;;;;4959416;28;20050;-80
2023/09/14 06:36:18;;;;;;;7.00;1.70;;;15.40;99.90;;;;;;4988802;28;20030;-81
2023/09/14 06:38:45;;;;;;;1.50;1.00;;;15.40;99.90;;;;;;5000533;28;20030;-80
2023/09/14 06:41:15;;;;;;;2.45;1.20;;;15.50;99.90;;;;;;4980798;28;20042;-82
2023/09/14 06:43:47;;;;;;;2.42;0.82;;;15.50;99.90;;;;;;4978199;28;20051;-80
2023/09/14 06:46:13;;;;;;;3.50;1.42;;;15.40;99.90;;;;;;4958012;28;20127;-78
2023/09/14 06:48:40;;;;;;;5.18;1.30;;;15.50;99.90;;;;;;4953611;28;20550;-79
2023/09/14 06:51:05;;;;;;;11.18;1.75;;;15.60;99.90;;;;;;4957003;28;20023;-79
2023/09/14 06:53:35;;;;;;;4.40;1.70;;;15.60;99.90;;;;;;4973815;28;20029;-80
2023/09/14 06:56:10;;;;;;;2.00;1.20;;;15.60;99.90;;;;;;4959644;28;20045;-80
2023/09/14 06:58:37;;;;;;;1.85;1.35;;;15.60;99.90;;;;;;4974061;28;20735;-80
2023/09/14 07:01:05;;;;;;;9.25;1.83;;;15.60;99.90;;;;;;4957739;28;20041;-84
2023/09/14 07:06:54;;;;;;;6.18;1.77;;;15.70;99.90;;;;;;4963524;28;20061;-82
2023/09/14 07:09:19;;;;;;;9.95;1.70;;;15.70;99.90;;;;;;4958982;28;20062;-82
2023/09/14 07:11:47;;;;;;;2.08;0.98;;;15.70;99.90;;;;;;4983745;28;20061;-85
2023/09/14 07:14:13;;;;;;;3.20;1.63;;;15.70;99.90;;;;;;4976737;28;20113;-81
2023/09/14 07:16:40;;;;;;;5.68;2.15;;;15.80;99.90;;;;;;4973696;28;20568;-83
2023/09/14 07:19:07;;;;;;;10.43;2.38;;;15.80;99.90;;;;;;4962357;28;20042;-83
2023/09/14 07:21:36;;;;;;;2.75;1.52;;;15.90;99.90;;;;;;4958432;28;20536;-82
2023/09/14 07:24:06;;;;;;;4.38;1.88;;;16.00;99.90;;;;;;4956057;28;20038;-82
2023/09/14 07:26:32;;;;;;;8.70;1.90;;;16.00;99.90;;;;;;4957744;28;20113;-81
2023/09/14 07:29:00;;;;;;;5.22;1.75;;;16.10;99.90;;;;;;4974090;28;20093;-81
2023/09/14 07:31:26;;;;;;;7.05;1.73;;;16.10;99.90;;;;;;4960366;28;20022;-80
2023/09/14 07:33:52;;;;;;;7.28;2.63;;;16.20;99.90;;;;;;4979858;28;20550;-88
2023/09/14 07:36:18;;;;;;;1.95;1.65;;;16.40;99.90;;;;;;4963011;28;20030;-86
2023/09/14 07:38:46;;;;;;;11.32;1.65;;;16.40;99.90;;;;;;4960912;28;20028;-85
2023/09/14 07:41:12;;;;;;;4.00;1.77;;;16.50;99.90;;;;;;4962116;28;20378;-86
2023/09/14 07:43:38;;;;;;;4.03;1.58;;;16.70;99.90;;;;;;4965669;28;20069;-86
2023/09/14 07:46:04;;;;;;;2.45;1.50;;;16.70;99.90;;;;;;4967187;28;20081;-85
2023/09/14 07:48:29;;;;;;;5.40;1.15;;;16.90;99.90;;;;;;4953208;28;20509;-84
2023/09/14 07:51:01;;;;;;;3.70;1.55;;;16.90;99.90;;;;;;4960471;28;20037;-84
2023/09/14 07:53:27;;;;;;;5.47;1.80;;;16.90;99.90;;;;;;4959393;28;20030;-81
2023/09/14 07:55:52;;;;;;;5.53;3.08;;;17.00;99.90;;;;;;4960136;28;20489;-81
2023/09/14 07:58:21;;;;;;;3.03;1.52;;;17.10;99.90;;;;;;4979061;28;20100;-82
2023/09/14 08:00:50;;;;;;;3.08;1.15;;;17.30;99.90;;;;;;4960345;28;20030;-82
2023/09/14 08:03:17;;;;;;;1.63;1.08;;;17.40;99.90;;;;;;4958750;28;20490;-80
2023/09/14 08:05:44;;;;;;;2.65;1.40;;;17.60;99.90;;;;;;4961224;28;20046;-81
2023/09/14 08:08:10;;;;;;;1.67;1.10;;;17.80;99.90;;;;;;4960903;28;20627;-80
2023/09/14 08:10:36;;;;;;;1.50;1.35;;;17.80;99.90;;;;;;4952737;28;20030;-82
2023/09/14 08:13:01;;;;;;;2.65;1.55;;;17.80;99.90;;;;;;4962545;28;20030;-83
2023/09/14 08:15:28;;;;;;;5.45;1.50;;;18.00;99.90;;;;;;4963372;28;20029;-89
2023/09/14 08:17:54;;;;;;;10.98;2.78;;;18.10;99.90;;;;;;4969827;28;20831;-84
2023/09/14 08:20:20;;;;;;;1.25;1.00;;;18.20;99.90;;;;;;4978750;28;20029;-80
2023/09/14 08:22:46;;;;;;;3.42;1.85;;;18.30;99.90;;;;;;4978526;28;20727;-79
2023/09/14 08:25:15;;;;;;;4.63;1.30;;;18.30;99.90;;;;;;4961128;28;20038;-79
2023/09/14 08:27:41;;;;;;;2.13;1.27;;;18.40;99.90;;;;;;4961548;28;20132;-78
2023/09/14 08:30:11;;;;;;;1.67;1.00;;;18.50;99.90;;;;;;4980360;28;20137;-78
2023/09/14 08:32:37;;;;;;;6.72;1.23;;;18.70;99.90;;;;;;4979342;28;20194;-79
2023/09/14 08:35:25;;;;;;;1.45;1.10;;;18.90;99.90;;;;;;4977862;28;20073;-79
2023/09/14 08:37:54;;;;;;;3.83;1.30;;;19.00;99.90;;;;;;5091380;23;20516;-79
2023/09/14 08:40:21;;;;;;;1.42;1.02;;;19.20;99.90;;;;;;4984325;28;20113;-88
2023/09/14 08:42:54;;;;;;;2.72;1.45;;;19.30;99.90;;;;;;4983239;28;20077;-87
2023/09/14 08:45:27;;;;;;;4.25;1.33;;;19.50;99.90;;;;;;4984706;28;20398;-89
2023/09/14 08:47:57;;;;;;;;;;;19.60;99.90;;;;;;4989706;28;20018;-88
2023/09/14 08:50:32;;;;;;;2.20;1.33;;;19.60;99.90;;;;;;4981892;28;19909;-88
2023/09/14 08:52:58;;;;;;;1.77;1.10;;;19.70;99.90;;;;;;4982651;28;20022;-84
2023/09/14 08:55:28;;;;;;;0.60;0.60;;;19.80;99.90;;;;;;4986061;28;20211;-83
2023/09/14 08:57:55;;;;;;;0.93;0.80;;;19.90;99.90;;;;;;4980167;28;20030;-83
2023/09/14 09:00:24;;;;;;;1.08;0.98;;;20.00;99.90;;;;;;4977349;28;20026;-87
2023/09/14 09:02:52;;;;;;;2.63;0.93;;;20.00;99.90;;;;;;4982450;28;20037;-83
2023/09/14 09:05:24;;;;;;;1.63;1.23;;;20.10;99.90;;;;;;4998209;28;20014;-87
2023/09/14 09:07:52;;;;;;;1.77;1.00;;;20.40;99.90;;;;;;4976190;28;20037;-85
2023/09/14 09:10:27;;;;;;;4.07;1.13;;;20.70;99.90;;;;;;4984009;28;20025;-86
2023/09/14 09:13:00;;;;;;;2.00;1.23;;;20.80;99.90;;;;;;4985271;28;20025;-83
2023/09/14 09:15:29;;;;;;;4.00;1.40;;;21.10;99.30;;;;;;4983768;28;20512;-82
2023/09/14 09:18:04;;;;;;;5.40;1.25;;;21.30;98.00;;;;;;4985603;28;20060;-81
2023/09/14 09:20:30;;;;;;;1.30;1.20;;;21.60;96.90;;;;;;4985824;28;20164;-86
2023/09/14 09:23:00;;;;;;;5.22;1.40;;;21.50;96.20;;;;;;4985574;28;20057;-86
2023/09/14 09:25:26;;;;;;;2.35;1.23;;;21.40;96.10;;;;;;5129886;23;20268;-84
2023/09/14 09:27:59;;;;;;;1.98;1.20;;;21.40;97.00;;;;;;4995347;28;20099;-90
2023/09/14 09:30:36;;;;;;;4.70;1.30;;;21.40;96.60;;;;;;4980183;28;20275;-90
2023/09/14 09:33:04;;;;;;;3.15;1.23;;;21.60;97.10;;;;;;4985025;28;20025;-87
2023/09/14 09:35:31;;;;;;;2.10;1.30;;;21.70;96.70;;;;;;4996538;28;20034;-86
2023/09/14 09:38:14;;;;;;;1.52;1.17;;;21.80;96.10;;;;;;4983436;28;20018;-88
2023/09/14 09:40:45;;;;;;;1.65;1.30;;;22.00;94.00;;;;;;4976512;28;20041;-83
2023/09/14 09:46:12;;;;;;;;;;;22.50;93.80;;;;;;4974914;28;20034;-81
2023/09/14 09:48:40;;;;;;;1.90;1.50;;;22.40;93.20;;;;;;4995608;28;19909;-84
2023/09/14 09:51:06;;;;;;;1.60;1.20;;;22.50;94.20;;;;;;4998348;28;20018;-82
2023/09/14 09:53:32;;;;;;;2.35;1.67;;;22.40;93.80;;;;;;4978002;28;20033;-86
2023/09/14 09:55:58;;;;;;;3.50;1.45;;;22.60;94.40;;;;;;4995287;28;21410;-85
2023/09/14 09:58:35;;;;;;;4.68;1.58;;;22.50;93.50;;;;;;4999650;28;20088;-88
2023/09/14 10:01:01;;;;;;;2.78;1.27;;;22.50;93.00;;;;;;4984161;28;20033;-89
2023/09/14 10:03:30;;;;;;;1.40;1.30;;;22.60;92.50;;;;;;4982871;28;20026;-89
2023/09/14 10:05:56;;;;;;;1.67;1.52;;;22.80;92.30;;;;;;4990743;28;21742;-84
2023/09/14 10:08:22;;;;;;;1.70;1.60;;;22.90;92.60;;;;;;4995552;28;20413;-80
2023/09/14 10:10:51;;;;;;;3.70;1.42;;;22.90;91.80;;;;;;4998086;28;20026;-80
2023/09/14 10:13:25;;;;;;;2.03;1.50;;;23.20;91.60;;;;;;4980245;28;20131;-81
2023/09/14 10:15:55;;;;;;;5.10;1.52;;;23.20;92.10;;;;;;4996357;28;20033;-81
2023/09/14 10:18:22;;;;;;;1.73;1.40;;;23.30;90.20;;;;;;4995444;28;20030;-80
2023/09/14 10:20:53;;;;;;;3.20;1.65;;;23.20;89.50;;;;;;4995734;28;20037;-80
2023/09/14 10:23:22;;;;;;;2.45;2.05;;;23.40;90.70;;;;;;4995002;28;20379;-80
2023/09/14 10:25:50;;;;;;;1.85;1.70;;;23.60;90.50;;;;;;4980102;28;20037;-80
2023/09/14 10:28:22;;;;;;;1.90;1.80;;;23.40;87.80;;;;;;4995239;28;20017;-81
2023/09/14 10:30:50;;;;;;;3.08;2.08;;;23.50;86.70;;;;;;4997439;28;20092;-78
2023/09/14 10:33:17;;;;;;;2.00;1.90;;;23.40;86.00;;;;;;4999435;28;20034;-87
2023/09/14 10:35:43;;;;;;;2.15;1.65;;;23.60;85.40;;;;;;4981664;28;20036;-82
2023/09/14 10:38:11;;;;;;;3.13;1.90;;;23.70;84.20;;;;;;4996414;28;20054;-82
2023/09/14 10:40:41;;;;;;;1.70;1.60;;;23.90;83.50;;;;;;4993503;28;20388;-86
2023/09/14 10:43:07;;;;;;;1.60;1.50;;;23.60;82.80;;;;;;4981145;28;20128;-85
2023/09/14 10:45:39;;;;;;;1.70;1.48;;;23.40;82.50;;;;;;4998506;28;20045;-84
2023/09/14 10:48:08;;;;;;;1.63;1.20;;;23.00;82.20;;;;;;5006045;28;20030;-85
2023/09/14 10:50:37;;;;;;;2.25;1.50;;;22.60;81.20;;;;;;4996070;28;20261;-83
2023/09/14 10:53:03;;;;;;;1.60;1.30;;;22.50;80.90;;;;;;4977713;28;20030;-81
2023/09/14 10:55:35;;;;;;;3.92;1.90;;;22.50;83.20;;;;;;4996533;28;20474;-85
2023/09/14 10:58:02;;;;;;;1.95;1.40;;;22.30;84.00;;;;;;4999884;28;20104;-84
2023/09/14 11:00:33;;;;;;;2.88;1.40;;;22.20;85.50;;;;;;4978588;28;20033;-82
2023/09/14 11:03:03;;;;;;;1.50;1.40;;;22.00;86.80;;;;;;4985145;28;20034;-81
2023/09/14 11:05:49;;;;;;;4.13;1.73;;;22.00;87.90;;;;;;4998164;28;20108;-80
2023/09/14 11:08:18;;;;;;;2.25;2.00;;;22.20;88.60;;;;;;5001652;28;20053;-81
2023/09/14 11:10:58;;;;;;;2.63;1.52;;;22.40;87.90;;;;;;5020038;28;20685;-81
2023/09/14 11:13:25;;;;;;;1.85;1.60;;;22.30;85.60;;;;;;5001760;28;20176;-81
2023/09/14 11:15:57;;;;;;;1.65;1.55;;;22.30;87.30;;;;;;4987809;28;20038;-81
2023/09/14 11:18:37;;;;;;;2.00;1.90;;;22.40;88.50;;;;;;4986374;28;20018;-83
2023/09/14 11:21:03;;;;;;;2.03;1.75;;;22.60;86.50;;;;;;4996718;28;20062;-87
2023/09/14 11:23:35;;;;;;;7.97;1.80;;;22.60;85.70;;;;;;5000565;28;20030;-93
2023/09/14 11:26:02;;;;;;;2.47;2.03;;;22.40;87.80;;;;;;4999845;28;20098;-84
2023/09/14 11:28:29;;;;;;;5.30;1.90;;;22.70;89.50;;;;;;4989840;28;20513;-82
2023/09/14 11:30:55;;;;;;;2.33;2.15;;;22.90;84.80;;;;;;4982376;28;20034;-85
2023/09/14 11:33:22;;;;;;;1.70;1.60;;;23.20;86.10;;;;;;4993585;28;20030;-85
2023/09/14 11:35:50;;;;;;;1.60;1.50;;;23.50;88.70;;;;;;4992082;28;20354;-84
2023/09/14 11:38:18;;;;;;;3.58;2.47;;;23.60;83.60;;;;;;4989440;28;20083;-83
2023/09/14 11:40:44;;;;;;;1.90;1.80;;;24.00;81.60;;;;;;4989857;28;20057;-92
2023/09/14 11:43:25;;;;;;;2.17;2.08;;;24.00;79.90;;;;;;4991427;28;20093;-86
2023/09/14 11:46:01;;;;;;;2.15;2.05;;;24.30;82.00;;;;;;4993591;28;20191;-84
2023/09/14 11:48:33;;;;;;;2.28;1.77;;;24.70;80.50;;;;;;4985765;28;20653;-84
2023/09/14 11:51:02;;;;;;;2.15;1.73;;;24.80;77.20;;;;;;4996099;28;20045;-87
2023/09/14 11:53:31;;;;;;;3.30;1.80;;;24.80;76.30;;;;;;4995003;28;20141;-83
2023/09/14 11:55:57;;;;;;;3.97;1.90;;;24.80;77.00;;;;;;4994552;28;20160;-89
2023/09/14 11:58:23;;;;;;;2.08;1.90;;;24.60;77.90;;;;;;4987049;28;20116;-83
2023/09/14 12:00:51;;;;;;;3.00;2.08;;;24.70;73.80;;;;;;4980099;28;20116;-83
2023/09/14 12:03:20;;;;;;;3.28;2.00;;;24.80;74.00;;;;;;4980551;28;20045;-82
2023/09/14 12:08:26;;;;;;;2.45;2.25;;;24.90;72.70;;;;;;5033098;23;20054;-81
2023/09/14 12:10:54;;;;;;;2.15;1.77;;;24.90;76.50;;;;;;4969051;28;20430;-80
2023/09/14 12:13:20;;;;;;;2.95;2.00;;;24.60;73.30;;;;;;4984128;28;20018;-82
2023/09/14 12:15:55;;;;;;;29.88;10.68;;;24.20;73.80;;;;;;4965617;28;20414;-82
2023/09/14 12:18:21;;;;;;;57.78;23.02;;;24.30;73.70;;;;;;4967813;28;20022;-82
2023/09/14 12:20:47;;;;;;;3.25;1.48;;;24.20;74.70;;;;;;4985792;28;20037;-81
2023/09/14 12:23:14;;;;;;;3.30;1.60;;;24.00;77.10;;;;;;4959496;28;20076;-80
2023/09/14 12:25:40;;;;;;;2.55;1.60;;;23.70;78.40;;;;;;4984640;28;20026;-80
2023/09/14 12:28:08;;;;;;;4.13;1.90;;;23.70;78.20;;;;;;4967770;28;20053;-81
2023/09/14 12:30:35;;;;;;;2.53;1.73;;;23.80;78.20;;;;;;4984107;28;20116;-80
2023/09/14 12:33:02;;;;;;;4.10;2.20;;;23.90;77.80;;;;;;4981620;28;20159;-81
2023/09/14 12:35:28;;;;;;;2.55;1.95;;;24.30;78.50;;;;;;4984864;28;20541;-82
2023/09/14 12:38:00;;;;;;;1.88;1.77;;;24.70;77.10;;;;;;4986311;28;20022;-90
2023/09/14 12:40:26;;;;;;;2.10;1.98;;;25.00;76.50;;;;;;4980786;28;20027;-86
2023/09/14 12:42:51;;;;;;;2.38;1.55;;;25.20;70.80;;;;;;4974439;28;20406;-85
2023/09/14 12:45:20;;;;;;;3.10;1.80;;;25.40;71.80;;;;;;4985667;28;20031;-88
2023/09/14 12:47:47;;;;;;;16.67;7.10;;;25.70;72.70;;;;;;4982030;28;20026;-87
2023/09/14 12:50:16;;;;;;;2.15;2.05;;;25.90;70.00;;;;;;4962668;28;20706;-81
2023/09/14 12:52:43;;;;;;;2.38;2.10;;;26.00;69.70;;;;;;4965728;28;20042;-81
2023/09/14 12:55:15;;;;;;;1.85;1.75;;;25.90;69.60;;;;;;4986956;28;20026;-86
2023/09/14 12:57:54;;;;;;;2.25;2.05;;;25.70;69.30;;;;;;4979952;28;20065;-85
2023/09/14 13:00:27;;;;;;;2.03;1.92;;;25.60;69.60;;;;;;4986260;28;20042;-83